createdAt,value
2019-03-15T00:01:55.890Z,96217.52
2019-03-15T00:04:22.665Z,96215.30
2019-03-15T00:06:50.873Z,96204.73
2019-03-15T00:09:22.481Z,96196.55
2019-03-15T00:11:51.241Z,96210.00
2019-03-15T00:14:21.958Z,96223.97
2019-03-15T00:16:49.664Z,96237.80
2019-03-15T00:19:23.451Z,96238.55
2019-03-15T00:21:54.200Z,96243.14
2019-03-15T00:24:23.093Z,96242.48
2019-03-15T00:26:50.730Z,96242.62
2019-03-15T00:29:19.888Z,96237.04
2019-03-15T00:31:47.545Z,96229.64
2019-03-15T00:34:16.646Z,96235.22
2019-03-15T00:37:01.456Z,96234.50
2019-03-15T00:39:32.563Z,96229.59
2019-03-15T00:42:00.788Z,96222.67
2019-03-15T00:44:36.207Z,96218.06
2019-03-15T00:47:05.700Z,96232.73
2019-03-15T00:49:33.596Z,96248.83
2019-03-15T00:52:02.303Z,96242.58
2019-03-15T00:54:29.250Z,96253.92
2019-03-15T00:56:59.435Z,96247.62
2019-03-15T00:59:27.367Z,96246.33
2019-03-15T01:01:58.052Z,96245.29
2019-03-15T01:04:27.792Z,96253.77
2019-03-15T01:06:57.427Z,96262.70
2019-03-15T01:09:41.546Z,96259.17
2019-03-15T01:12:11.083Z,96247.44
2019-03-15T01:14:41.064Z,96243.27
2019-03-15T01:17:08.933Z,96248.63
2019-03-15T01:22:24.909Z,96260.94
2019-03-15T01:25:03.316Z,96263.95
2019-03-15T01:27:25.656Z,96275.80
2019-03-15T01:29:54.425Z,96272.14
2019-03-15T01:32:22.740Z,96271.58
2019-03-15T01:34:50.507Z,96282.66
2019-03-15T01:37:20.891Z,96278.69
2019-03-15T01:42:39.688Z,96267.09
2019-03-15T01:45:12.764Z,96273.67
2019-03-15T01:47:40.355Z,96275.20
2019-03-15T01:50:08.951Z,96267.11
2019-03-15T01:52:43.983Z,96275.45
2019-03-15T01:55:11.196Z,96278.77
2019-03-15T01:57:38.926Z,96279.00
2019-03-15T02:00:06.601Z,96290.06
2019-03-15T02:02:37.284Z,96291.23
2019-03-15T02:05:04.382Z,96279.75
2019-03-15T02:07:35.952Z,96270.31
2019-03-15T02:10:14.876Z,96282.73
2019-03-15T02:12:44.173Z,96278.39
2019-03-15T02:15:10.881Z,96286.08
2019-03-15T02:17:38.300Z,96286.90
2019-03-15T02:20:12.735Z,96281.05
2019-03-15T02:22:40.475Z,96283.73
2019-03-15T02:25:09.210Z,96277.52
2019-03-15T02:27:39.030Z,96264.66
2019-03-15T02:30:06.652Z,96271.44
2019-03-15T02:32:36.435Z,96301.33
2019-03-15T02:35:05.758Z,96296.44
2019-03-15T02:37:33.768Z,96286.72
2019-03-15T02:40:01.240Z,96286.01
2019-03-15T02:42:30.039Z,96292.53
2019-03-15T02:44:59.217Z,96304.27
2019-03-15T02:47:28.595Z,96291.00
2019-03-15T02:50:14.154Z,96304.00
2019-03-15T02:52:43.558Z,96303.48
2019-03-15T02:55:11.291Z,96317.23
2019-03-15T02:57:40.008Z,96317.21
2019-03-15T03:00:07.670Z,96328.05
2019-03-15T03:02:35.023Z,96322.73
2019-03-15T03:05:03.927Z,96328.75
2019-03-15T03:07:33.881Z,96337.31
2019-03-15T03:10:02.264Z,96333.00
2019-03-15T03:12:34.110Z,96333.00
2019-03-15T03:15:01.740Z,96346.54
2019-03-15T03:17:29.376Z,96347.55
2019-03-15T03:19:57.600Z,96345.97
2019-03-15T03:22:25.725Z,96349.52
2019-03-15T03:24:54.685Z,96345.31
2019-03-15T03:27:22.454Z,96362.42
2019-03-15T03:29:56.390Z,96349.30
2019-03-15T03:32:27.803Z,96355.50
2019-03-15T03:34:56.469Z,96366.58
2019-03-15T03:37:24.242Z,96373.66
2019-03-15T03:39:51.551Z,96376.83
2019-03-15T03:42:22.731Z,96362.42
2019-03-15T03:44:49.564Z,96364.80
2019-03-15T03:47:20.032Z,96365.95
2019-03-15T03:49:47.187Z,96376.61
2019-03-15T03:52:16.831Z,96378.03
2019-03-15T03:54:44.697Z,96380.17
2019-03-15T03:57:14.740Z,96381.77
2019-03-15T03:59:43.488Z,96371.27
2019-03-15T04:02:12.611Z,96381.63
2019-03-15T04:04:40.952Z,96396.49
2019-03-15T04:10:12.161Z,96409.52
2019-03-15T04:12:41.790Z,96409.63
2019-03-15T04:15:14.741Z,96410.77
2019-03-15T04:17:43.214Z,96425.28
2019-03-15T04:20:20.497Z,96415.72
2019-03-15T04:22:55.381Z,96423.77
2019-03-15T04:25:21.285Z,96415.31
2019-03-15T04:27:52.303Z,96417.13
2019-03-15T04:30:19.627Z,96411.21
2019-03-15T04:32:47.006Z,96414.75
2019-03-15T04:35:14.684Z,96420.77
2019-03-15T04:37:52.569Z,96434.64
2019-03-15T04:43:11.087Z,96459.05
2019-03-15T04:45:38.777Z,96460.48
2019-03-15T04:48:05.635Z,96453.13
2019-03-15T04:50:33.507Z,96460.70
2019-03-15T04:53:13.964Z,96456.09
2019-03-15T04:55:43.655Z,96475.11
2019-03-15T04:58:14.275Z,96493.11
2019-03-15T05:00:43.733Z,96486.29
2019-03-15T05:03:12.651Z,96485.72
2019-03-15T05:05:39.241Z,96501.56
2019-03-15T05:08:07.430Z,96511.78
2019-03-15T05:10:38.347Z,96514.62
2019-03-15T05:13:06.717Z,96515.84
2019-03-15T05:15:36.029Z,96520.86
2019-03-15T05:18:09.132Z,96521.05
2019-03-15T05:20:38.339Z,96534.91
2019-03-15T05:23:08.997Z,96532.84
2019-03-15T05:25:36.545Z,96539.81
2019-03-15T05:28:03.362Z,96541.84
2019-03-15T05:30:32.952Z,96552.98
2019-03-15T05:33:01.862Z,96555.33
2019-03-15T05:35:33.544Z,96555.86
2019-03-15T05:38:00.192Z,96563.96
2019-03-15T05:40:29.088Z,96572.71
2019-03-15T05:42:59.035Z,96564.63
2019-03-15T05:48:13.769Z,96583.57
2019-03-15T05:50:51.980Z,96581.83
2019-03-15T05:53:19.656Z,96588.72
2019-03-15T05:55:52.595Z,96602.08
2019-03-15T05:58:21.952Z,96599.39
2019-03-15T06:00:48.779Z,96605.56
2019-03-15T06:03:15.457Z,96596.95
2019-03-15T06:05:42.261Z,96603.30
2019-03-15T06:08:09.215Z,96600.40
2019-03-15T06:10:36.897Z,96604.55
2019-03-15T06:13:04.622Z,96599.05
2019-03-15T06:15:31.621Z,96604.45
2019-03-15T06:17:58.247Z,96619.16
2019-03-15T06:20:26.237Z,96622.66
2019-03-15T06:22:53.188Z,96621.70
2019-03-15T06:25:21.116Z,96633.09
2019-03-15T06:27:48.823Z,96639.19
2019-03-15T06:30:15.523Z,96639.04
2019-03-15T06:32:42.257Z,96629.52
2019-03-15T06:35:09.857Z,96645.11
2019-03-15T06:37:36.775Z,96641.71
2019-03-15T06:40:04.841Z,96642.73
2019-03-15T06:42:32.411Z,96638.29
2019-03-15T06:44:59.344Z,96631.07
2019-03-15T06:47:26.710Z,96604.89
2019-03-15T06:49:54.392Z,96596.34
2019-03-15T06:52:21.424Z,96599.72
2019-03-15T06:54:49.661Z,96618.81
2019-03-15T06:57:17.333Z,96630.38
2019-03-15T06:59:44.546Z,96636.65
2019-03-15T07:02:14.418Z,96634.66
2019-03-15T07:04:41.137Z,96637.39
2019-03-15T07:07:08.655Z,96646.77
2019-03-15T07:09:35.265Z,96657.69
2019-03-15T07:12:09.354Z,96654.05
2019-03-15T07:14:32.246Z,96655.36
2019-03-15T07:16:59.871Z,96648.38
2019-03-15T07:19:30.353Z,96655.45
2019-03-15T07:21:54.797Z,96663.73
2019-03-15T07:24:25.344Z,96659.62
2019-03-15T07:26:51.355Z,96668.41
2019-03-15T07:29:19.052Z,96671.01
2019-03-15T07:31:45.754Z,96674.33
2019-03-15T07:34:13.891Z,96672.98
2019-03-15T07:36:40.818Z,96673.98
2019-03-15T07:39:07.425Z,96675.27
2019-03-15T07:41:34.291Z,96675.41
2019-03-15T07:44:01.847Z,96677.26
2019-03-15T07:46:29.486Z,96683.30
2019-03-15T07:48:57.184Z,96691.65
2019-03-15T07:51:24.058Z,96691.54
2019-03-15T07:53:50.670Z,96704.62
2019-03-15T07:56:18.307Z,96710.00
2019-03-15T07:58:45.255Z,96711.00
2019-03-15T08:01:12.156Z,96712.48
2019-03-15T08:03:38.769Z,96700.67
2019-03-15T08:06:05.934Z,96709.30
2019-03-15T08:08:32.956Z,96713.16
2019-03-15T08:11:02.637Z,96709.27
2019-03-15T08:13:29.460Z,96713.63
2019-03-15T08:15:56.163Z,96708.20
2019-03-15T08:18:22.898Z,96699.17
2019-03-15T08:20:50.294Z,96690.45
2019-03-15T08:23:18.635Z,96683.58
2019-03-15T08:25:45.534Z,96683.98
2019-03-15T08:28:12.414Z,96686.22
2019-03-15T08:30:40.449Z,96684.97
2019-03-15T08:33:10.400Z,96665.79
2019-03-15T08:35:37.053Z,96664.30
2019-03-15T08:38:06.023Z,96670.62
2019-03-15T08:40:32.623Z,96679.75
2019-03-15T08:43:00.656Z,96671.83
2019-03-15T08:45:28.343Z,96670.68
2019-03-15T08:47:54.967Z,96670.36
2019-03-15T08:50:24.494Z,96671.20
2019-03-15T08:52:53.858Z,96673.44
2019-03-15T08:55:19.517Z,96672.44
2019-03-15T08:57:46.331Z,96669.07
2019-03-15T09:00:13.942Z,96660.22
2019-03-15T09:02:41.951Z,96668.73
2019-03-15T09:05:10.557Z,96656.20
2019-03-15T09:07:37.346Z,96669.58
2019-03-15T09:10:05.243Z,96668.73
2019-03-15T09:12:32.331Z,96652.58
2019-03-15T09:15:00.422Z,96647.13
2019-03-15T09:17:27.269Z,96657.20
2019-03-15T09:19:54.467Z,96664.20
2019-03-15T09:22:22.250Z,96664.99
2019-03-15T09:24:48.856Z,96661.08
2019-03-15T09:27:16.319Z,96666.13
2019-03-15T09:29:43.301Z,96661.49
2019-03-15T09:32:09.957Z,96664.27
2019-03-15T09:34:36.710Z,96668.33
2019-03-15T09:37:05.895Z,96664.08
2019-03-15T09:39:33.831Z,96663.66
2019-03-15T09:42:01.489Z,96652.11
2019-03-15T09:44:28.373Z,96635.52
2019-03-15T09:46:55.260Z,96640.05
2019-03-15T09:49:22.465Z,96633.67
2019-03-15T09:51:49.465Z,96638.98
2019-03-15T09:54:16.354Z,96648.83
2019-03-15T09:56:43.298Z,96639.47
2019-03-15T09:59:19.119Z,96628.14
2019-03-15T10:01:45.335Z,96638.77
2019-03-15T10:04:11.993Z,96628.69
2019-03-15T10:06:38.754Z,96624.73
2019-03-15T10:09:06.624Z,96625.08
2019-03-15T10:11:33.297Z,96630.28
2019-03-15T10:14:02.301Z,96626.98
2019-03-15T10:16:28.470Z,96626.03
2019-03-15T10:18:55.320Z,96626.73
2019-03-15T10:21:22.204Z,96624.94
2019-03-15T10:23:48.781Z,96638.67
2019-03-15T10:26:17.460Z,96637.31
2019-03-15T10:28:43.763Z,96628.66
2019-03-15T10:31:10.651Z,96630.00
2019-03-15T10:33:49.573Z,96623.89
2019-03-15T10:36:05.647Z,96637.23
2019-03-15T10:38:32.493Z,96635.62
2019-03-15T10:41:01.309Z,96635.62
2019-03-15T10:43:27.706Z,96632.92
2019-03-15T10:45:54.583Z,96633.77
2019-03-15T10:48:25.599Z,96638.33
2019-03-15T10:50:49.649Z,96642.09
2019-03-15T10:53:16.605Z,96649.24
2019-03-15T10:55:43.340Z,96642.52
2019-03-15T10:58:09.994Z,96643.89
2019-03-15T11:00:36.921Z,96643.10
2019-03-15T11:03:03.565Z,96639.33
2019-03-15T11:05:30.256Z,96640.03
2019-03-15T11:07:56.858Z,96640.67
2019-03-15T11:10:23.512Z,96635.81
2019-03-15T11:12:50.387Z,96632.42
2019-03-15T11:15:17.509Z,96636.58
2019-03-15T11:17:44.322Z,96646.36
2019-03-15T11:20:11.229Z,96644.50
2019-03-15T11:22:38.402Z,96639.95
2019-03-15T11:25:05.235Z,96629.28
2019-03-15T11:27:32.077Z,96625.50
2019-03-15T11:29:59.028Z,96620.48
2019-03-15T11:32:25.709Z,96623.86
2019-03-15T11:34:52.572Z,96625.67
2019-03-15T11:37:19.094Z,96616.31
2019-03-15T11:39:46.361Z,96622.58
2019-03-15T11:42:14.991Z,96627.67
2019-03-15T11:44:41.756Z,96628.47
2019-03-15T11:47:08.446Z,96630.03
2019-03-15T11:49:35.413Z,96630.91
2019-03-15T11:52:02.686Z,96633.16
2019-03-15T11:54:29.590Z,96632.87
2019-03-15T11:56:56.466Z,96634.16
2019-03-15T11:59:23.524Z,96634.06
2019-03-15T12:02:03.161Z,96626.43
2019-03-15T12:04:18.661Z,96629.12
2019-03-15T12:09:32.227Z,96627.56
2019-03-15T12:11:48.583Z,96627.84
2019-03-15T12:17:03.107Z,96629.70
2019-03-15T12:19:30.914Z,96629.22
2019-03-15T12:22:12.808Z,96619.66
2019-03-15T12:24:39.962Z,96611.67
2019-03-15T12:29:54.676Z,96626.02
2019-03-15T12:32:23.801Z,96625.47
2019-03-15T12:34:54.717Z,96626.77
2019-03-15T12:37:25.287Z,96615.28
2019-03-15T12:39:57.160Z,96621.63
2019-03-15T12:42:25.594Z,96616.67
2019-03-15T12:44:53.221Z,96616.05
2019-03-15T12:47:21.848Z,96612.94
2019-03-15T12:49:50.944Z,96619.75
2019-03-15T12:52:21.456Z,96621.98
2019-03-15T12:54:53.032Z,96620.34
2019-03-15T12:57:21.028Z,96619.38
2019-03-15T12:59:48.960Z,96613.88
2019-03-15T13:02:20.093Z,96625.44
2019-03-15T13:07:32.303Z,96625.87
2019-03-15T13:09:59.459Z,96651.20
2019-03-15T13:12:27.577Z,96637.09
2019-03-15T13:14:59.712Z,96635.68
2019-03-15T13:17:30.893Z,96644.59
2019-03-15T13:19:57.587Z,96641.89
2019-03-15T13:22:25.278Z,96644.18
2019-03-15T13:27:42.369Z,96635.62
2019-03-15T13:30:16.811Z,96637.47
2019-03-15T13:32:47.723Z,96638.13
2019-03-15T13:35:15.400Z,96636.25
2019-03-15T13:37:43.321Z,96634.22
2019-03-15T13:40:10.125Z,96642.19
2019-03-15T13:42:39.325Z,96642.95
2019-03-15T13:45:16.454Z,96643.55
2019-03-15T13:47:45.655Z,96643.72
2019-03-15T13:50:17.169Z,96648.94
2019-03-15T13:52:47.158Z,96647.59
2019-03-15T13:58:04.314Z,96642.55
2019-03-15T14:00:35.563Z,96651.86
2019-03-15T14:03:09.678Z,96653.59
2019-03-15T14:05:37.752Z,96658.73
2019-03-15T14:08:11.551Z,96664.75
2019-03-15T14:10:32.909Z,96664.91
2019-03-15T14:12:59.559Z,96661.16
2019-03-15T14:15:26.327Z,96668.04
2019-03-15T14:17:53.281Z,96660.56
2019-03-15T14:20:20.311Z,96665.38
2019-03-15T14:22:47.251Z,96667.70
2019-03-15T14:25:13.809Z,96675.45
2019-03-15T14:27:40.672Z,96668.79
2019-03-15T14:30:07.364Z,96665.30
2019-03-15T14:32:34.195Z,96676.38
2019-03-15T14:35:01.750Z,96671.22
2019-03-15T14:37:28.366Z,96673.45
2019-03-15T14:39:55.589Z,96678.34
2019-03-15T14:42:22.631Z,96674.35
2019-03-15T14:44:49.319Z,96685.85
2019-03-15T14:47:16.478Z,96683.66
2019-03-15T14:49:43.862Z,96680.93
2019-03-15T14:52:10.618Z,96679.59
2019-03-15T14:54:37.454Z,96685.48
2019-03-15T14:57:04.876Z,96683.05
2019-03-15T14:59:31.490Z,96689.70
2019-03-15T15:01:58.451Z,96686.39
2019-03-15T15:04:25.572Z,96690.81
2019-03-15T15:06:55.219Z,96683.42
2019-03-15T15:09:21.862Z,96682.31
2019-03-15T15:11:48.534Z,96681.81
2019-03-15T15:14:15.308Z,96681.27
2019-03-15T15:16:42.462Z,96681.50
2019-03-15T15:19:09.286Z,96676.19
2019-03-15T15:21:36.171Z,96673.98
2019-03-15T15:24:03.340Z,96679.79
2019-03-15T15:26:30.525Z,96675.88
2019-03-15T15:28:57.277Z,96680.63
2019-03-15T15:31:24.438Z,96682.02
2019-03-15T15:33:51.475Z,96681.66
2019-03-15T15:36:18.377Z,96680.02
2019-03-15T15:38:45.451Z,96681.65
2019-03-15T15:41:12.664Z,96682.66
2019-03-15T15:43:39.258Z,96680.40
2019-03-15T15:46:06.501Z,96683.42
2019-03-15T15:48:33.485Z,96679.92
2019-03-15T15:51:00.234Z,96676.49
2019-03-15T15:53:27.418Z,96681.80
2019-03-15T15:55:54.351Z,96683.97
2019-03-15T15:58:20.960Z,96679.33
2019-03-15T16:00:47.839Z,96682.31
2019-03-15T16:03:14.515Z,96675.59
2019-03-15T16:08:36.215Z,96676.83
2019-03-15T16:11:06.671Z,96674.81
2019-03-15T16:13:39.950Z,96672.61
2019-03-15T16:16:13.978Z,96673.14
2019-03-15T16:18:52.811Z,96679.43
2019-03-15T16:21:25.426Z,96686.34
2019-03-15T16:23:54.746Z,96684.61
2019-03-15T16:26:25.417Z,96677.17
2019-03-15T16:28:57.732Z,96663.86
2019-03-15T16:31:27.501Z,96666.59
2019-03-15T16:33:55.260Z,96672.66
2019-03-15T16:36:25.673Z,96670.73
2019-03-15T16:38:56.649Z,96673.03
2019-03-15T16:41:24.600Z,96673.38
2019-03-15T16:43:55.837Z,96670.73
2019-03-15T16:46:26.296Z,96676.25
2019-03-15T16:48:54.230Z,96674.33
2019-03-15T16:56:56.525Z,96681.90
2019-03-15T16:59:25.262Z,96683.98
2019-03-15T17:02:00.960Z,96685.59
2019-03-15T17:07:19.260Z,96681.98
2019-03-15T17:10:05.370Z,96684.42
2019-03-15T17:12:40.302Z,96683.31
2019-03-15T17:15:08.124Z,96680.11
2019-03-15T17:17:41.149Z,96682.56
2019-03-15T17:20:11.444Z,96681.39
2019-03-15T17:22:52.682Z,96668.82
2019-03-15T17:25:21.323Z,96675.73
2019-03-15T17:27:52.423Z,96676.25
2019-03-15T17:30:24.122Z,96679.48
2019-03-15T17:32:51.118Z,96681.03
2019-03-15T17:35:40.729Z,96671.43
2019-03-15T17:38:05.600Z,96665.67
2019-03-15T17:40:36.339Z,96674.84
2019-03-15T17:43:03.514Z,96673.72
2019-03-15T17:45:32.482Z,96677.50
2019-03-15T17:48:04.284Z,96672.39
2019-03-15T17:50:36.248Z,96670.22
2019-03-15T17:53:05.931Z,96674.94
2019-03-15T17:55:37.915Z,96673.67
2019-03-15T17:58:16.684Z,96670.05
2019-03-15T18:00:50.888Z,96678.28
2019-03-15T18:03:21.383Z,96673.98
2019-03-15T18:05:47.699Z,96671.70
2019-03-15T18:11:07.479Z,96678.08
2019-03-15T18:13:55.148Z,96679.38
2019-03-15T18:16:22.223Z,96677.28
2019-03-15T18:18:50.996Z,96681.18
2019-03-15T18:21:39.182Z,96678.12
2019-03-15T18:24:21.592Z,96674.88
2019-03-15T18:26:59.146Z,96672.86
2019-03-15T18:29:40.600Z,96674.44
2019-03-15T18:32:07.637Z,96685.00
2019-03-15T18:34:36.342Z,96675.12
2019-03-15T18:42:53.012Z,96680.73
2019-03-15T18:53:33.202Z,96676.94
2019-03-15T18:56:03.864Z,96672.92
2019-03-15T18:59:39.193Z,96676.55
2019-03-15T19:01:11.214Z,96685.51
2019-03-15T19:03:43.178Z,96694.73
2019-03-15T19:06:09.751Z,96690.72
2019-03-15T19:08:36.607Z,96685.28
2019-03-15T19:19:22.990Z,96688.01
2019-03-15T19:21:55.648Z,96690.12
2019-03-15T19:24:22.611Z,96686.72
2019-03-15T19:26:50.439Z,96682.34
2019-03-15T19:29:28.087Z,96675.61
2019-03-15T19:34:36.616Z,96689.34
2019-03-15T19:37:08.102Z,96679.27
2019-03-15T19:39:32.723Z,96684.22
2019-03-15T19:47:22.048Z,96687.26
2019-03-15T19:52:23.739Z,96681.16
2019-03-15T19:55:00.739Z,96675.16
2019-03-15T19:57:28.657Z,96669.27
2019-03-15T20:00:07.133Z,96667.94
2019-03-15T20:02:29.233Z,96682.12
2019-03-15T20:05:02.945Z,96671.59
2019-03-15T20:08:21.552Z,96656.60
2019-03-15T20:10:15.885Z,96667.28
2019-03-15T20:12:37.836Z,96667.47
2019-03-15T20:15:22.017Z,96671.08
2019-03-15T20:17:54.758Z,96654.77
2019-03-15T20:20:20.143Z,96670.89
2019-03-15T20:22:47.500Z,96661.64
2019-03-15T20:25:30.545Z,96676.63
2019-03-15T20:36:14.707Z,96672.92
2019-03-15T20:38:42.475Z,96668.59
2019-03-15T20:41:20.096Z,96656.93
2019-03-15T20:43:48.591Z,96662.72
2019-03-15T20:48:50.392Z,96655.66
2019-03-15T20:51:31.699Z,96647.48
2019-03-15T20:53:56.751Z,96657.88
2019-03-15T20:56:28.874Z,96651.72
2019-03-15T21:01:43.835Z,96650.98
2019-03-15T21:06:58.983Z,96652.63
2019-03-15T21:09:53.350Z,96663.98
2019-03-15T21:12:32.769Z,96655.00
2019-03-15T21:15:06.956Z,96649.03
2019-03-15T21:17:34.158Z,96648.20
2019-03-15T21:20:17.538Z,96664.70
2019-03-15T21:22:35.681Z,96656.50
2019-03-15T21:25:08.407Z,96652.94
2019-03-15T21:27:37.353Z,96661.25
2019-03-15T21:30:03.860Z,96652.66
2019-03-15T21:32:34.788Z,96647.10
2019-03-15T21:35:02.668Z,96662.73
2019-03-15T21:37:32.520Z,96647.27
2019-03-15T21:42:45.121Z,96666.96
2019-03-15T21:45:19.689Z,96662.86
2019-03-15T21:47:50.043Z,96659.40
2019-03-15T21:53:06.585Z,96648.49
2019-03-15T21:58:20.954Z,96650.41
2019-03-15T22:01:01.766Z,96662.92
2019-03-15T22:03:21.410Z,96657.38
2019-03-15T22:08:34.146Z,96664.61
2019-03-15T22:11:01.057Z,96648.86
2019-03-15T22:13:30.513Z,96654.22
2019-03-15T22:15:59.504Z,96648.57
2019-03-15T22:18:27.180Z,96665.48
2019-03-15T22:20:54.118Z,96650.17
2019-03-15T22:23:22.817Z,96635.73
2019-03-15T22:28:37.185Z,96631.80
2019-03-15T22:33:52.509Z,96612.99
2019-03-15T22:36:20.491Z,96606.42
2019-03-15T22:38:48.093Z,96626.97
2019-03-15T22:41:19.067Z,96611.52
2019-03-15T22:43:48.396Z,96593.93
2019-03-15T22:46:16.440Z,96609.45
2019-03-15T22:48:43.027Z,96598.48
2019-03-15T22:51:10.818Z,96576.28
2019-03-15T22:53:39.810Z,96625.60
2019-03-15T22:56:06.813Z,96579.56
2019-03-15T22:58:34.430Z,96580.95
2019-03-15T23:01:03.898Z,96606.94
2019-03-15T23:03:32.106Z,96589.62
2019-03-15T23:05:59.918Z,96582.26
2019-03-15T23:08:28.103Z,96597.20
2019-03-15T23:11:06.076Z,96596.34
2019-03-15T23:13:34.055Z,96600.05
2019-03-15T23:16:06.018Z,96592.58
2019-03-15T23:18:48.056Z,96606.91
2019-03-15T23:21:18.249Z,96595.72
2019-03-15T23:23:47.153Z,96602.67
2019-03-15T23:26:14.479Z,96607.64
2019-03-15T23:28:41.101Z,96602.84
2019-03-15T23:31:08.725Z,96583.43
2019-03-15T23:33:39.233Z,96597.43
2019-03-15T23:36:10.372Z,96595.94
2019-03-15T23:38:38.229Z,96613.23
2019-03-15T23:41:08.940Z,96582.38
2019-03-15T23:43:38.582Z,96597.25
2019-03-15T23:46:06.264Z,96627.08
2019-03-15T23:48:37.029Z,96610.71
2019-03-15T23:51:15.491Z,96602.72
2019-03-15T23:53:50.371Z,96622.81
2019-03-15T23:56:16.754Z,96592.67
2019-03-15T23:58:44.563Z,96622.66
